Terminal Aerodrome Forecast
Issued by NWS Charleston, SC

Home | Current Version | Previous Version | Text Only | Print | Product List | Glossary On
Versions: 1 2 3 4 5 6 7 8 9 10 11 12 13
533
FTUS42 KCHS 281734
TAFCHS
TAF
KCHS 281734Z 2818/0118 20010KT P6SM SCT030
      TEMPO 2818/2819 BKN030
     FM010500 19006KT P6SM FEW007 BKN015
     FM010700 19006KT P6SM OVC007
     FM011000 19005KT 3SM BR OVC005
     FM011430 20012G19KT P6SM SCT015 BKN035=

USA.gov is the U.S. government's official web portal to all federal, state and local government web resources and services.